createdAt,value
2019-01-27T00:00:56.749Z,3.33
2019-01-27T00:03:22.735Z,4.83
2019-01-27T00:05:48.560Z,3.67
2019-01-27T00:08:14.506Z,5.00
2019-01-27T00:10:40.543Z,3.67
2019-01-27T00:13:06.791Z,4.33
2019-01-27T00:15:32.672Z,4.20
2019-01-27T00:17:58.505Z,5.57
2019-01-27T00:20:24.644Z,5.17
2019-01-27T00:22:50.504Z,2.83
2019-01-27T00:25:16.935Z,2.90
2019-01-27T00:27:42.792Z,2.80
2019-01-27T00:30:18.212Z,3.63
2019-01-27T00:32:44.116Z,3.87
2019-01-27T00:35:10.166Z,5.73
2019-01-27T00:37:36.065Z,4.03
2019-01-27T00:40:04.843Z,6.00
2019-01-27T00:42:30.763Z,3.70
2019-01-27T00:44:56.616Z,3.17
2019-01-27T00:47:22.435Z,3.30
2019-01-27T00:49:48.295Z,2.93
2019-01-27T00:52:14.320Z,3.97
2019-01-27T00:54:40.191Z,3.83
2019-01-27T00:57:06.123Z,3.33
2019-01-27T00:59:31.994Z,3.40
2019-01-27T01:01:57.823Z,3.00
2019-01-27T01:04:23.770Z,2.27
2019-01-27T01:06:49.698Z,3.33
2019-01-27T01:09:15.610Z,4.87
2019-01-27T01:11:41.490Z,4.37
2019-01-27T01:14:07.533Z,3.20
2019-01-27T01:16:33.406Z,4.43
2019-01-27T01:18:59.214Z,2.40
2019-01-27T01:21:25.262Z,3.10
2019-01-27T01:23:52.092Z,8.23
2019-01-27T01:26:17.950Z,3.93
2019-01-27T01:28:43.874Z,4.43
2019-01-27T01:31:09.917Z,4.57
2019-01-27T01:33:35.750Z,3.27
2019-01-27T01:36:01.687Z,4.13
2019-01-27T01:38:27.619Z,4.43
2019-01-27T01:40:54.066Z,3.83
2019-01-27T01:43:19.999Z,3.77
2019-01-27T01:45:45.827Z,5.60
2019-01-27T01:48:11.964Z,3.00
2019-01-27T01:50:38.498Z,3.03
2019-01-27T01:53:04.749Z,3.13
2019-01-27T01:55:30.572Z,3.53
2019-01-27T01:57:56.515Z,3.67
2019-01-27T02:00:25.041Z,3.17
2019-01-27T02:02:51.006Z,3.03
2019-01-27T02:05:18.454Z,3.47
2019-01-27T02:07:45.292Z,4.33
2019-01-27T02:10:14.021Z,3.50
2019-01-27T02:12:39.912Z,4.77
2019-01-27T02:15:12.188Z,2.27
2019-01-27T02:17:38.032Z,3.43
2019-01-27T02:20:04.671Z,3.30
2019-01-27T02:22:30.551Z,3.83
2019-01-27T02:24:56.352Z,3.47
2019-01-27T02:27:22.163Z,4.20
2019-01-27T02:29:48.003Z,4.50
2019-01-27T02:32:13.832Z,3.70
2019-01-27T02:34:39.664Z,3.93
2019-01-27T02:37:05.590Z,6.13
2019-01-27T02:39:31.427Z,3.80
2019-01-27T02:41:57.257Z,2.90
2019-01-27T02:44:23.104Z,3.27
2019-01-27T02:46:48.921Z,4.40
2019-01-27T02:49:14.885Z,8.67
2019-01-27T02:51:40.695Z,4.17
2019-01-27T02:54:06.542Z,3.47
2019-01-27T02:56:32.456Z,3.93
2019-01-27T02:58:58.295Z,4.00
2019-01-27T03:01:24.144Z,2.93
2019-01-27T03:03:49.971Z,5.33
2019-01-27T03:06:26.993Z,3.73
2019-01-27T03:08:54.745Z,3.60
2019-01-27T03:11:20.667Z,3.20
2019-01-27T03:13:46.544Z,5.33
2019-01-27T03:16:13.092Z,3.00
2019-01-27T03:18:38.920Z,3.30
2019-01-27T03:21:04.855Z,5.40
2019-01-27T03:23:30.671Z,4.27
2019-01-27T03:25:56.499Z,5.03
2019-01-27T03:28:22.313Z,2.70
2019-01-27T03:30:48.299Z,2.93
2019-01-27T03:33:14.215Z,2.13
2019-01-27T03:35:40.039Z,3.67
2019-01-27T03:38:05.899Z,5.13
2019-01-27T03:40:31.840Z,2.57
2019-01-27T03:42:57.891Z,3.20
2019-01-27T03:45:23.733Z,2.37
2019-01-27T03:47:50.143Z,6.07
2019-01-27T03:50:20.274Z,3.97
2019-01-27T03:52:46.512Z,3.20
2019-01-27T03:55:15.368Z,5.13
2019-01-27T03:57:41.177Z,2.97
2019-01-27T04:00:10.803Z,2.03
2019-01-27T04:02:36.744Z,3.93
2019-01-27T04:05:03.984Z,2.67
2019-01-27T04:07:29.832Z,2.23
2019-01-27T04:09:55.679Z,3.77
2019-01-27T04:12:21.758Z,1.90
2019-01-27T04:14:47.623Z,3.13
2019-01-27T04:17:13.470Z,3.37
2019-01-27T04:19:39.306Z,3.30
2019-01-27T04:22:05.257Z,4.80
2019-01-27T04:24:31.219Z,2.80
2019-01-27T04:26:57.059Z,3.00
2019-01-27T04:29:22.884Z,3.73
2019-01-27T04:31:48.728Z,4.17
2019-01-27T04:34:14.582Z,2.13
2019-01-27T04:36:40.408Z,2.20
2019-01-27T04:39:07.174Z,2.17
2019-01-27T04:41:33.037Z,2.03
2019-01-27T04:43:58.887Z,4.00
2019-01-27T04:46:24.822Z,2.70
2019-01-27T04:48:50.687Z,3.80
2019-01-27T04:51:16.550Z,3.90
2019-01-27T04:53:42.401Z,3.20
2019-01-27T04:56:08.228Z,2.30
2019-01-27T04:58:34.079Z,2.20
2019-01-27T05:01:00.037Z,2.70
2019-01-27T05:03:27.772Z,4.43
2019-01-27T05:05:53.725Z,2.00
2019-01-27T05:08:19.570Z,3.40
2019-01-27T05:10:45.524Z,4.10
2019-01-27T05:13:11.387Z,3.00
2019-01-27T05:15:37.239Z,3.80
2019-01-27T05:18:03.691Z,3.20
2019-01-27T05:20:29.551Z,3.67
2019-01-27T05:22:55.392Z,3.23
2019-01-27T05:25:21.362Z,4.33
2019-01-27T05:27:47.187Z,5.77
2019-01-27T05:30:19.585Z,2.57
2019-01-27T05:32:45.557Z,2.57
2019-01-27T05:35:11.789Z,3.07
2019-01-27T05:37:37.743Z,2.80
2019-01-27T05:40:07.099Z,2.90
2019-01-27T05:42:32.960Z,2.77
2019-01-27T05:44:58.792Z,2.77
2019-01-27T05:47:24.690Z,3.57
2019-01-27T05:49:50.541Z,2.63
2019-01-27T05:52:16.492Z,3.67
2019-01-27T05:54:42.304Z,1.97
2019-01-27T05:57:08.162Z,3.07
2019-01-27T05:59:33.989Z,2.83
2019-01-27T06:01:59.860Z,2.60
2019-01-27T06:04:25.818Z,3.10
2019-01-27T06:06:51.668Z,2.77
2019-01-27T06:09:17.497Z,3.70
2019-01-27T06:11:43.325Z,3.37
2019-01-27T06:14:09.210Z,2.50
2019-01-27T06:16:35.091Z,3.30
2019-01-27T06:19:00.911Z,1.70
2019-01-27T06:21:26.863Z,2.80
2019-01-27T06:23:52.736Z,2.50
2019-01-27T06:26:18.568Z,5.97
2019-01-27T06:28:44.422Z,6.43
2019-01-27T06:31:10.265Z,5.00
2019-01-27T06:33:38.043Z,4.43
2019-01-27T06:36:04.084Z,9.03
2019-01-27T06:38:29.967Z,5.50
2019-01-27T06:40:55.800Z,5.27
2019-01-27T06:43:21.649Z,7.80
2019-01-27T06:45:47.478Z,6.77
2019-01-27T06:48:13.344Z,6.93
2019-01-27T06:50:39.291Z,8.13
2019-01-27T06:53:07.546Z,7.97
2019-01-27T06:55:33.527Z,5.77
2019-01-27T06:57:59.357Z,4.47
2019-01-27T07:00:27.821Z,3.60
2019-01-27T07:02:55.565Z,6.23
2019-01-27T07:05:23.450Z,4.27
2019-01-27T07:08:00.240Z,1.80
2019-01-27T07:10:28.120Z,1.50
2019-01-27T07:13:10.965Z,1.97
2019-01-27T07:15:38.750Z,0.80
2019-01-27T07:18:15.730Z,1.37
2019-01-27T07:20:43.521Z,1.40
2019-01-27T07:23:17.039Z,1.10
2019-01-27T07:25:44.808Z,3.73
2019-01-27T07:28:12.668Z,3.20
2019-01-27T07:30:46.408Z,2.20
2019-01-27T07:33:30.763Z,2.80
2019-01-27T07:35:58.550Z,3.23
2019-01-27T07:38:26.321Z,2.80
2019-01-27T07:40:54.135Z,2.20
2019-01-27T07:43:31.068Z,3.67
2019-01-27T07:45:58.940Z,3.10
2019-01-27T07:48:26.723Z,3.50
2019-01-27T07:51:00.246Z,4.17
2019-01-27T07:53:31.004Z,5.30
2019-01-27T07:56:04.643Z,5.53
2019-01-27T07:58:32.385Z,5.27
2019-01-27T08:01:00.171Z,6.40
2019-01-27T08:03:30.760Z,4.37
2019-01-27T08:06:07.673Z,6.33
2019-01-27T08:08:41.935Z,6.37
2019-01-27T08:11:09.794Z,5.67
2019-01-27T08:13:46.653Z,7.17
2019-01-27T08:16:20.316Z,7.10
2019-01-27T08:18:48.214Z,8.50
2019-01-27T08:21:15.960Z,6.73
2019-01-27T08:23:55.909Z,5.90
2019-01-27T08:26:40.603Z,7.27
2019-01-27T08:29:08.379Z,6.47
2019-01-27T08:31:36.240Z,5.43
2019-01-27T08:34:21.138Z,4.00
2019-01-27T08:36:48.990Z,4.10
2019-01-27T08:39:16.902Z,5.13
2019-01-27T08:41:47.667Z,3.27
2019-01-27T08:44:15.470Z,5.33
2019-01-27T08:46:43.318Z,4.03
2019-01-27T08:49:09.197Z,4.87
2019-01-27T08:51:35.106Z,3.47
2019-01-27T08:54:01.059Z,8.83
2019-01-27T08:56:26.995Z,3.00
2019-01-27T08:58:52.821Z,5.67
2019-01-27T09:01:32.475Z,6.03
2019-01-27T09:04:00.268Z,3.97
2019-01-27T09:06:30.772Z,4.07
2019-01-27T09:08:58.524Z,5.90
2019-01-27T09:11:32.272Z,6.40
2019-01-27T09:14:00.037Z,6.10
2019-01-27T09:16:27.808Z,5.60
2019-01-27T09:19:12.073Z,5.50
2019-01-27T09:21:54.855Z,5.70
2019-01-27T09:24:22.685Z,7.37
2019-01-27T09:26:50.590Z,11.43
2019-01-27T09:29:21.059Z,5.97
2019-01-27T09:31:49.406Z,7.83
2019-01-27T09:34:19.666Z,6.87
2019-01-27T09:37:04.280Z,5.77
2019-01-27T09:39:34.761Z,5.73
2019-01-27T09:42:02.585Z,4.43
2019-01-27T09:44:39.279Z,7.17
2019-01-27T09:47:19.350Z,5.80
2019-01-27T09:49:47.248Z,3.60
2019-01-27T09:52:15.020Z,7.90
2019-01-27T09:54:42.898Z,5.30
2019-01-27T09:57:25.987Z,5.30
2019-01-27T09:59:56.908Z,5.13
2019-01-27T10:02:24.685Z,9.20
2019-01-27T10:04:52.549Z,4.33
2019-01-27T10:07:23.298Z,3.53
2019-01-27T10:10:06.312Z,3.33
2019-01-27T10:12:37.085Z,3.93
2019-01-27T10:15:10.885Z,3.13
2019-01-27T10:17:41.401Z,7.13
2019-01-27T10:20:09.455Z,3.90
2019-01-27T10:22:43.039Z,6.07
2019-01-27T10:25:16.109Z,3.23
2019-01-27T10:27:44.334Z,5.07
2019-01-27T10:30:15.716Z,4.17
2019-01-27T10:32:49.643Z,4.37
2019-01-27T10:35:17.515Z,3.47
2019-01-27T10:37:47.978Z,3.93
2019-01-27T10:40:18.992Z,4.23
2019-01-27T10:42:46.728Z,3.10
2019-01-27T10:45:20.809Z,6.97
2019-01-27T10:47:57.812Z,6.87
2019-01-27T10:50:25.688Z,5.93
2019-01-27T10:53:05.457Z,5.23
2019-01-27T10:55:48.505Z,6.63
2019-01-27T10:58:16.249Z,6.70
2019-01-27T11:00:59.292Z,6.63
2019-01-27T11:03:29.999Z,6.43
2019-01-27T11:05:57.785Z,6.43
2019-01-27T11:08:28.619Z,6.53
2019-01-27T11:10:56.371Z,6.00
2019-01-27T11:13:32.940Z,9.07
2019-01-27T11:16:06.528Z,6.30
2019-01-27T11:18:34.264Z,3.53
2019-01-27T11:21:05.216Z,25.57
2019-01-27T11:23:35.710Z,33.13
2019-01-27T11:26:03.629Z,28.53
2019-01-27T11:28:43.588Z,31.13
2019-01-27T11:31:11.894Z,23.20
2019-01-27T11:33:39.697Z,38.23
2019-01-27T11:36:10.972Z,18.77
2019-01-27T11:38:50.548Z,5.37
2019-01-27T11:41:21.026Z,12.43
2019-01-27T11:43:55.366Z,7.93
2019-01-27T11:46:23.309Z,11.40
2019-01-27T11:48:51.076Z,7.20
2019-01-27T11:51:18.833Z,4.40
2019-01-27T11:53:44.785Z,2.77
2019-01-27T11:56:10.742Z,5.10
2019-01-27T11:58:36.723Z,5.00
2019-01-27T12:01:04.676Z,3.17
2019-01-27T12:03:30.765Z,4.00
2019-01-27T12:05:56.778Z,8.87
2019-01-27T12:08:22.719Z,3.53
2019-01-27T12:10:48.896Z,6.63
2019-01-27T12:13:15.253Z,4.97
2019-01-27T12:15:41.213Z,5.20
2019-01-27T12:18:07.688Z,5.70
2019-01-27T12:20:33.790Z,3.27
2019-01-27T12:22:59.732Z,2.43
2019-01-27T12:25:25.698Z,2.57
2019-01-27T12:27:51.670Z,2.50
2019-01-27T12:30:18.637Z,2.13
2019-01-27T12:32:44.607Z,2.30
2019-01-27T12:35:10.488Z,3.25
2019-01-27T12:37:36.931Z,3.27
2019-01-27T12:40:06.659Z,4.10
2019-01-27T12:42:32.661Z,5.80
2019-01-27T12:44:58.714Z,3.57
2019-01-27T12:47:24.628Z,5.13
2019-01-27T12:49:50.572Z,2.80
2019-01-27T12:52:16.557Z,4.73
2019-01-27T12:54:42.496Z,5.17
2019-01-27T12:57:08.524Z,4.40
2019-01-27T12:59:34.444Z,5.90
2019-01-27T13:02:01.186Z,5.60
2019-01-27T13:04:27.039Z,4.20
2019-01-27T13:06:52.903Z,6.87
2019-01-27T13:09:18.855Z,3.87
2019-01-27T13:11:44.744Z,3.07
2019-01-27T13:14:10.640Z,4.67
2019-01-27T13:16:36.642Z,6.73
2019-01-27T13:19:02.452Z,8.83
2019-01-27T13:21:28.426Z,5.10
2019-01-27T13:23:54.433Z,4.83
2019-01-27T13:26:20.419Z,3.30
2019-01-27T13:28:46.264Z,2.97
2019-01-27T13:31:12.099Z,4.13
2019-01-27T13:33:38.124Z,3.83
2019-01-27T13:36:04.488Z,6.57
2019-01-27T13:38:30.360Z,3.80
2019-01-27T13:40:56.306Z,5.57
2019-01-27T13:43:22.197Z,4.77
2019-01-27T13:45:48.146Z,4.00
2019-01-27T13:48:14.019Z,2.70
2019-01-27T13:50:40.057Z,3.40
2019-01-27T13:53:06.007Z,3.00
2019-01-27T13:55:32.270Z,4.57
2019-01-27T13:57:58.705Z,2.53
2019-01-27T14:00:30.376Z,4.97
2019-01-27T14:02:56.259Z,2.90
2019-01-27T14:05:22.647Z,2.13
2019-01-27T14:07:49.115Z,2.80
2019-01-27T14:10:22.753Z,1.87
2019-01-27T14:12:48.620Z,4.80
2019-01-27T14:15:23.136Z,2.90
2019-01-27T14:17:49.214Z,4.23
2019-01-27T14:20:17.360Z,3.30
2019-01-27T14:22:43.334Z,2.70
2019-01-27T14:25:12.373Z,2.50
2019-01-27T14:27:38.231Z,2.10
2019-01-27T14:30:07.913Z,2.03
2019-01-27T14:32:33.757Z,3.40
2019-01-27T14:35:00.339Z,1.73
2019-01-27T14:37:26.598Z,2.43
2019-01-27T14:39:52.574Z,2.30
2019-01-27T14:42:18.439Z,1.93
2019-01-27T14:44:44.596Z,1.70
2019-01-27T14:47:10.460Z,2.67
2019-01-27T14:49:36.336Z,1.77
2019-01-27T14:52:02.405Z,3.27
2019-01-27T14:54:28.372Z,2.00
2019-01-27T14:56:54.320Z,1.63
2019-01-27T14:59:20.145Z,3.57
2019-01-27T15:01:46.127Z,4.43
2019-01-27T15:04:11.982Z,1.77
2019-01-27T15:06:37.958Z,5.20
2019-01-27T15:09:06.188Z,1.73
2019-01-27T15:11:32.835Z,3.10
2019-01-27T15:13:58.835Z,14.00
2019-01-27T15:16:25.010Z,2.67
2019-01-27T15:18:51.043Z,5.40
2019-01-27T15:21:17.059Z,3.73
2019-01-27T15:23:42.865Z,2.93
2019-01-27T15:26:09.040Z,3.37
2019-01-27T15:28:34.885Z,4.40
2019-01-27T15:31:00.841Z,5.10
2019-01-27T15:33:26.704Z,7.33
2019-01-27T15:35:52.655Z,10.90
2019-01-27T15:38:18.605Z,3.40
2019-01-27T15:40:44.573Z,2.10
2019-01-27T15:43:11.063Z,3.00
2019-01-27T15:45:37.425Z,1.87
2019-01-27T15:48:04.737Z,2.80
2019-01-27T15:50:32.770Z,2.07
2019-01-27T15:52:58.818Z,3.00
2019-01-27T15:55:25.161Z,5.77
2019-01-27T15:57:51.504Z,3.73
2019-01-27T16:00:20.944Z,5.03
2019-01-27T16:02:46.957Z,2.57
2019-01-27T16:05:15.898Z,2.93
2019-01-27T16:07:42.092Z,6.10
2019-01-27T16:10:11.135Z,4.00
2019-01-27T16:12:37.101Z,4.13
2019-01-27T16:15:07.016Z,6.00
2019-01-27T16:17:33.301Z,7.40
2019-01-27T16:19:59.226Z,4.97
2019-01-27T16:22:25.226Z,7.00
2019-01-27T16:24:51.370Z,8.37
2019-01-27T16:27:17.332Z,8.73
2019-01-27T16:29:45.297Z,9.77
2019-01-27T16:32:12.847Z,8.67
2019-01-27T16:34:38.844Z,10.87
2019-01-27T16:37:04.775Z,17.27
2019-01-27T16:39:30.737Z,10.77
2019-01-27T16:41:56.776Z,16.27
2019-01-27T16:44:22.900Z,12.67
2019-01-27T16:46:48.766Z,12.10
2019-01-27T16:49:15.079Z,21.83
2019-01-27T16:51:48.821Z,15.50
2019-01-27T16:54:08.907Z,16.10
2019-01-27T16:56:34.845Z,17.63
2019-01-27T16:59:00.796Z,13.57
2019-01-27T17:01:27.242Z,22.13
2019-01-27T17:03:53.193Z,17.17
2019-01-27T17:06:19.159Z,11.73
2019-01-27T17:08:44.994Z,10.47
2019-01-27T17:11:11.250Z,15.73
2019-01-27T17:13:37.130Z,15.60
2019-01-27T17:16:04.754Z,19.50
2019-01-27T17:18:30.682Z,16.13
2019-01-27T17:20:57.133Z,16.33
2019-01-27T17:23:23.097Z,14.93
2019-01-27T17:25:53.517Z,13.30
2019-01-27T17:28:17.158Z,21.20
2019-01-27T17:30:43.501Z,14.60
2019-01-27T17:33:09.356Z,11.70
2019-01-27T17:35:35.541Z,14.73
2019-01-27T17:38:01.439Z,17.17
2019-01-27T17:40:27.369Z,17.83
2019-01-27T17:42:53.257Z,20.10
2019-01-27T17:45:23.901Z,16.10
2019-01-27T17:47:49.791Z,17.40
2019-01-27T17:50:19.719Z,13.87
2019-01-27T17:52:46.035Z,17.37
2019-01-27T17:55:33.848Z,18.97
2019-01-27T17:58:01.816Z,19.17
2019-01-27T18:00:29.665Z,16.53
2019-01-27T18:02:57.555Z,18.90
2019-01-27T18:05:25.535Z,22.87
2019-01-27T18:07:53.479Z,21.57
2019-01-27T18:10:24.258Z,19.17
2019-01-27T18:12:52.187Z,21.93
2019-01-27T18:15:19.514Z,25.30
2019-01-27T18:17:45.668Z,14.83
2019-01-27T18:20:12.150Z,18.17
2019-01-27T18:22:38.279Z,16.17
2019-01-27T18:25:08.122Z,11.90
2019-01-27T18:27:34.158Z,19.73
2019-01-27T18:30:00.345Z,15.83
2019-01-27T18:32:26.192Z,17.20
2019-01-27T18:34:52.118Z,21.83
2019-01-27T18:37:18.156Z,18.73
2019-01-27T18:39:44.014Z,18.90
2019-01-27T18:42:10.891Z,23.77
2019-01-27T18:44:37.101Z,19.43
2019-01-27T18:47:03.498Z,19.30
2019-01-27T18:49:29.620Z,12.97
2019-01-27T18:51:55.648Z,19.07
2019-01-27T18:54:32.724Z,16.40
2019-01-27T18:57:06.590Z,17.10
2019-01-27T18:59:43.326Z,15.83
2019-01-27T19:02:14.056Z,15.20
2019-01-27T19:04:57.272Z,13.67
2019-01-27T19:07:25.129Z,18.30
2019-01-27T19:09:53.092Z,14.97
2019-01-27T19:12:29.757Z,19.27
2019-01-27T19:15:13.294Z,22.23
2019-01-27T19:17:53.327Z,23.40
2019-01-27T19:20:29.027Z,16.67
2019-01-27T19:23:02.790Z,11.20
2019-01-27T19:25:33.766Z,20.00
2019-01-27T19:28:07.391Z,23.53
2019-01-27T19:30:35.269Z,18.70
2019-01-27T19:33:06.003Z,16.77
2019-01-27T19:35:45.785Z,19.47
2019-01-27T19:38:16.436Z,18.70
2019-01-27T19:40:47.213Z,14.03
2019-01-27T19:43:27.097Z,19.17
2019-01-27T19:45:57.993Z,18.40
2019-01-27T19:48:34.662Z,16.07
2019-01-27T19:51:05.629Z,20.17
2019-01-27T19:53:45.628Z,18.63
2019-01-27T19:56:13.593Z,20.07
2019-01-27T19:58:58.007Z,17.30
2019-01-27T20:01:31.742Z,21.00
2019-01-27T20:04:02.615Z,16.33
2019-01-27T20:06:30.489Z,17.43
2019-01-27T20:08:59.433Z,21.63
2019-01-27T20:11:30.177Z,15.77
2019-01-27T20:13:58.046Z,20.63
2019-01-27T20:16:31.535Z,15.80
2019-01-27T20:19:05.150Z,13.50
2019-01-27T20:21:53.576Z,17.20
2019-01-27T20:24:37.717Z,15.23
2019-01-27T20:27:20.442Z,16.70
2019-01-27T20:29:54.092Z,15.67
2019-01-27T20:32:31.463Z,17.53
2019-01-27T20:35:14.721Z,13.97
2019-01-27T20:37:45.446Z,17.40
2019-01-27T20:40:23.898Z,15.13
2019-01-27T20:43:00.987Z,20.20
2019-01-27T20:45:31.565Z,19.43
2019-01-27T20:47:59.527Z,18.33
2019-01-27T20:50:34.385Z,18.00
2019-01-27T20:53:02.154Z,13.70
2019-01-27T20:55:46.728Z,18.77
2019-01-27T20:58:17.550Z,17.57
2019-01-27T21:00:54.722Z,17.30
2019-01-27T21:03:31.509Z,16.60
2019-01-27T21:06:02.499Z,21.27
2019-01-27T21:08:31.255Z,19.43
2019-01-27T21:11:17.420Z,15.43
2019-01-27T21:14:00.128Z,18.00
2019-01-27T21:16:34.142Z,18.33
2019-01-27T21:19:10.857Z,19.80
2019-01-27T21:21:37.220Z,12.77
2019-01-27T21:24:03.914Z,21.27
2019-01-27T21:26:29.941Z,20.03
2019-01-27T21:28:55.785Z,14.73
2019-01-27T21:31:21.643Z,21.33
2019-01-27T21:33:47.824Z,20.10
2019-01-27T21:36:13.841Z,20.67
2019-01-27T21:38:39.973Z,21.40
2019-01-27T21:41:05.897Z,20.73
2019-01-27T21:43:31.911Z,14.00
2019-01-27T21:45:57.860Z,22.13
2019-01-27T21:48:23.713Z,24.20
2019-01-27T21:50:49.687Z,22.43
2019-01-27T21:53:15.551Z,19.13
2019-01-27T21:55:41.587Z,18.43
2019-01-27T21:58:07.662Z,22.43
2019-01-27T22:00:33.499Z,21.63
2019-01-27T22:02:59.409Z,26.60
2019-01-27T22:05:25.483Z,14.33
2019-01-27T22:07:51.409Z,22.60
2019-01-27T22:10:17.381Z,20.83
2019-01-27T22:12:43.424Z,23.43
2019-01-27T22:15:11.246Z,19.17
2019-01-27T22:17:37.185Z,19.03
2019-01-27T22:20:09.507Z,18.03
2019-01-27T22:22:37.671Z,19.30
2019-01-27T22:25:06.893Z,19.77
2019-01-27T22:27:32.752Z,20.40
2019-01-27T22:29:58.644Z,18.93
2019-01-27T22:32:24.452Z,18.30
2019-01-27T22:34:50.342Z,17.33
2019-01-27T22:37:16.155Z,15.73
2019-01-27T22:39:42.139Z,21.73
2019-01-27T22:42:08.001Z,18.23
2019-01-27T22:44:33.958Z,19.70
2019-01-27T22:46:59.940Z,22.73
2019-01-27T22:49:25.870Z,16.27
2019-01-27T22:51:51.813Z,15.60
2019-01-27T22:54:17.871Z,17.70
2019-01-27T22:56:43.827Z,22.37
2019-01-27T22:59:09.678Z,13.10
2019-01-27T23:01:36.146Z,19.20
2019-01-27T23:04:02.570Z,15.00
2019-01-27T23:06:28.547Z,18.73
2019-01-27T23:08:54.385Z,21.47
2019-01-27T23:11:20.558Z,16.80
2019-01-27T23:13:46.865Z,17.00
2019-01-27T23:16:12.913Z,18.83
2019-01-27T23:18:38.916Z,16.60
2019-01-27T23:21:04.794Z,14.17
2019-01-27T23:23:30.748Z,16.80
2019-01-27T23:25:56.581Z,19.47
2019-01-27T23:28:22.434Z,15.67
2019-01-27T23:30:48.284Z,14.07
2019-01-27T23:33:14.233Z,16.10
2019-01-27T23:35:40.186Z,16.53
2019-01-27T23:38:06.041Z,15.97
2019-01-27T23:40:32.003Z,14.83
2019-01-27T23:42:58.224Z,13.77
2019-01-27T23:45:24.156Z,19.73
2019-01-27T23:47:50.092Z,13.57
2019-01-27T23:50:16.027Z,15.23
2019-01-27T23:52:41.881Z,11.90
2019-01-27T23:55:08.560Z,14.07
2019-01-27T23:57:34.389Z,11.10
